Terminal Aerodrome Forecast
Issued by NWS

Home | Current Version | Previous Version | Text Only | Print | Product List | Glossary On
Versions: 1 2 3 4 5 6 7 8 9 10 11 12 13 14 15 16 17 18 19 20 21 22 23 24 25 26 27 28 29 30 31 32 33 34 35 36 37 38 39 40
000
FTAK31 PAFA 252342
TAFAUN
TAF
PAUN 252342Z 2600/2624 31012KT P6SM SCT035 SCT120
     FM260800 VRB05KT P6SM BKN120
     FM261300 08006KT P6SM BKN050 OVC120
     FM262100 32008KT P6SM OVC120=

USA.gov is the U.S. government's official web portal to all federal, state and local government web resources and services.